Terminal Aerodrome Forecast
Issued by NWS Topeka, KS

Home | Current Version | Previous Version | Graphics & Text | Print | Product List | Glossary On
Versions: 1 2 3 4 5 6 7 8 9 10 11 12 13 14 15 16
000
FTUS43 KTOP 111120
TAFTOP
TAF
KTOP 111120Z 1112/1212 28009KT P6SM FEW250 WS010/31040KT
     FM111600 32021G31KT P6SM SCT250
     FM112200 32019G28KT P6SM BKN035
     FM120300 34015G21KT P6SM SCT040
     FM120700 32011KT P6SM SKC=

USA.gov is the U.S. government's official web portal to all federal, state and local government web resources and services.